createdAt,value
2022-11-13T00:00:39.633Z,98487.22
2022-11-13T00:06:01.345Z,98491.66
2022-11-13T00:11:22.360Z,98585.09
2022-11-13T00:16:42.973Z,98572.16
2022-11-13T00:22:03.551Z,98571.28
2022-11-13T00:27:24.245Z,98544.50
2022-11-13T00:32:44.852Z,98532.41
2022-11-13T00:38:05.777Z,98599.03
2022-11-13T00:43:26.836Z,98542.75
2022-11-13T00:48:47.590Z,98533.25
2022-11-13T00:54:08.422Z,98508.19
2022-11-13T00:59:29.333Z,98478.81
2022-11-13T01:04:49.964Z,98587.00
2022-11-13T01:10:11.181Z,98555.81
2022-11-13T01:15:32.061Z,98597.38
2022-11-13T01:20:53.070Z,98600.00
2022-11-13T01:26:25.881Z,98610.44
2022-11-13T01:31:46.547Z,98536.03
2022-11-13T01:37:07.496Z,98577.56
2022-11-13T01:42:28.392Z,98476.31
2022-11-13T01:47:49.016Z,98539.53
2022-11-13T01:53:10.019Z,98544.69
2022-11-13T01:58:31.115Z,98431.41
2022-11-13T02:03:51.610Z,98579.31
2022-11-13T02:09:14.440Z,98479.78
2022-11-13T02:14:36.248Z,98567.19
2022-11-13T02:20:00.169Z,98442.63
2022-11-13T02:25:21.065Z,98485.88
2022-11-13T02:30:42.138Z,98447.88
2022-11-13T02:36:03.981Z,98551.66
2022-11-13T02:41:24.530Z,98503.19
2022-11-13T02:46:45.326Z,98549.16
2022-11-13T02:52:06.187Z,98530.94
2022-11-13T02:57:27.039Z,98457.41
2022-11-13T03:02:47.864Z,98504.19
2022-11-13T03:08:08.962Z,98422.81
2022-11-13T03:13:29.712Z,98447.03
2022-11-13T03:18:50.385Z,98434.09
2022-11-13T03:24:11.271Z,98494.63
2022-11-13T03:29:32.051Z,98434.09
2022-11-13T03:34:52.923Z,98498.16
2022-11-13T03:40:13.452Z,98553.53
2022-11-13T03:45:34.786Z,98529.38
2022-11-13T03:50:56.415Z,98541.47
2022-11-13T03:56:17.389Z,98480.88
2022-11-13T04:01:38.289Z,98530.22
2022-11-13T04:06:59.182Z,98502.59
2022-11-13T04:12:19.796Z,98476.63
2022-11-13T04:17:40.995Z,98485.28
2022-11-13T04:23:01.992Z,98493.97
2022-11-13T04:28:22.781Z,98539.84
2022-11-13T04:33:43.798Z,98557.16
2022-11-13T04:39:04.406Z,98532.06
2022-11-13T04:44:25.337Z,98584.91
2022-11-13T04:49:45.952Z,98545.91
2022-11-13T04:55:07.059Z,98572.78
2022-11-13T05:00:27.673Z,98515.59
2022-11-13T05:05:48.403Z,98409.09
2022-11-13T05:11:08.929Z,98550.25
2022-11-13T05:16:29.691Z,98607.44
2022-11-13T05:21:50.668Z,98557.19
2022-11-13T05:27:16.891Z,98532.94
2022-11-13T05:32:38.354Z,98519.97
2022-11-13T05:38:02.842Z,98510.41
2022-11-13T05:43:23.332Z,98551.13
2022-11-13T05:48:45.153Z,98622.19
2022-11-13T05:54:06.522Z,98611.78
2022-11-13T05:59:30.535Z,98672.47
2022-11-13T06:04:55.398Z,98653.28
2022-11-13T06:10:17.466Z,98727.84
2022-11-13T06:15:38.226Z,98730.41
2022-11-13T06:21:04.211Z,98654.81
2022-11-13T06:26:30.558Z,98699.88
2022-11-13T06:31:51.278Z,98710.19
2022-11-13T06:37:12.162Z,98725.81
2022-11-13T06:42:32.718Z,98703.22
2022-11-13T06:47:54.483Z,98682.31
2022-11-13T06:53:18.626Z,98836.78
2022-11-13T06:58:39.394Z,98779.47
2022-11-13T07:04:00.602Z,98718.81
2022-11-13T07:09:21.470Z,98693.94
2022-11-13T07:14:42.297Z,98823.34
2022-11-13T07:20:03.076Z,98813.81
2022-11-13T07:25:25.249Z,98826.84
2022-11-13T07:30:46.232Z,98797.31
2022-11-13T07:36:08.647Z,98822.47
2022-11-13T07:41:29.207Z,98810.31
2022-11-13T07:46:49.787Z,98801.50
2022-11-13T07:52:10.476Z,98761.72
2022-11-13T07:57:31.189Z,98871.97
2022-11-13T08:02:51.942Z,98806.00
2022-11-13T08:08:13.894Z,98827.63
2022-11-13T08:13:35.028Z,98841.50
2022-11-13T08:18:55.614Z,98745.00
2022-11-13T08:24:16.224Z,98830.03
2022-11-13T08:29:37.559Z,98739.66
2022-11-13T08:34:58.079Z,98839.59
2022-11-13T08:40:19.268Z,98767.34
2022-11-13T08:45:40.092Z,98808.16
2022-11-13T08:51:01.377Z,98791.63
2022-11-13T08:56:22.460Z,98887.25
2022-11-13T09:01:43.479Z,98802.84
2022-11-13T09:07:04.495Z,98728.22
2022-11-13T09:12:25.323Z,98844.66
2022-11-13T09:17:46.087Z,98776.00
2022-11-13T09:23:08.322Z,98763.00
2022-11-13T09:28:29.436Z,98901.16
2022-11-13T09:33:50.555Z,98925.41
2022-11-13T09:39:11.661Z,98758.44
2022-11-13T09:44:57.645Z,98834.16
2022-11-13T09:50:25.879Z,98923.59
2022-11-13T09:55:58.379Z,98950.44
2022-11-13T10:01:50.212Z,98939.13
2022-11-13T10:07:43.255Z,98925.97
2022-11-13T10:13:12.215Z,98913.84
2022-11-13T10:18:36.675Z,98932.13
2022-11-13T10:23:57.773Z,98904.28
2022-11-13T10:29:20.158Z,99000.78
2022-11-13T10:34:44.854Z,99014.63
2022-11-13T10:40:06.652Z,99012.72
2022-11-13T10:45:27.604Z,98970.06
2022-11-13T10:51:00.115Z,99001.41
2022-11-13T10:56:30.247Z,99041.41
2022-11-13T11:01:50.748Z,99019.56
2022-11-13T11:07:20.604Z,98971.69
2022-11-13T11:12:43.172Z,99052.53
2022-11-13T11:18:07.956Z,98919.41
2022-11-13T11:23:40.680Z,99025.56
2022-11-13T11:29:21.764Z,99076.00
2022-11-13T11:34:50.372Z,99045.41
2022-11-13T11:40:21.387Z,99102.72
2022-11-13T11:45:46.624Z,99006.84
2022-11-13T11:51:40.243Z,99034.78
2022-11-13T11:57:15.912Z,99077.25
2022-11-13T12:02:55.566Z,99124.22
2022-11-13T12:08:46.404Z,99138.88
2022-11-13T12:14:35.785Z,99141.38
2022-11-13T12:20:24.427Z,99147.38
2022-11-13T12:26:06.511Z,99112.41
2022-11-13T12:32:05.140Z,99172.53
2022-11-13T12:37:43.175Z,99150.50
2022-11-13T12:43:12.744Z,99149.53
2022-11-13T12:48:35.305Z,99179.78
2022-11-13T12:53:56.457Z,99178.81
2022-11-13T12:59:30.453Z,99214.59
2022-11-13T13:05:08.892Z,99219.63
2022-11-13T13:10:48.444Z,99106.22
2022-11-13T13:16:09.405Z,99219.22
2022-11-13T13:21:43.888Z,99221.88
2022-11-13T13:27:26.020Z,99275.88
2022-11-13T13:32:56.425Z,99271.34
2022-11-13T13:38:34.380Z,99296.50
2022-11-13T13:44:27.745Z,99297.25
2022-11-13T13:49:48.540Z,99279.53
2022-11-13T13:55:36.445Z,99268.72
2022-11-13T14:01:17.808Z,99230.94
2022-11-13T14:06:52.651Z,99326.22
2022-11-13T14:12:23.615Z,99338.34
2022-11-13T14:17:44.788Z,99176.69
2022-11-13T14:23:05.572Z,99291.16
2022-11-13T14:28:29.285Z,99305.78
2022-11-13T14:33:50.674Z,99338.06
2022-11-13T14:39:22.878Z,99360.72
2022-11-13T14:44:43.675Z,99280.03
2022-11-13T14:50:48.545Z,99347.41
2022-11-13T14:56:11.779Z,99354.84
2022-11-13T15:01:33.133Z,99215.72
2022-11-13T15:06:56.269Z,99329.16
2022-11-13T15:12:17.018Z,99366.56
2022-11-13T15:17:38.005Z,99387.56
2022-11-13T15:23:01.648Z,99418.81
2022-11-13T15:28:22.650Z,99252.59
2022-11-13T15:33:43.524Z,99431.75
2022-11-13T15:39:10.326Z,99384.50
2022-11-13T15:44:34.367Z,99299.38
2022-11-13T15:50:12.847Z,99400.59
2022-11-13T15:55:35.089Z,99336.44
2022-11-13T16:00:57.444Z,99417.53
2022-11-13T16:06:20.876Z,99316.81
2022-11-13T16:11:42.445Z,99391.53
2022-11-13T16:17:05.746Z,99465.06
2022-11-13T16:22:27.395Z,99458.00
2022-11-13T16:27:48.175Z,99473.75
2022-11-13T16:33:12.828Z,99511.34
2022-11-13T16:38:33.624Z,99440.31
2022-11-13T16:43:54.945Z,99417.28
2022-11-13T16:49:19.320Z,99462.75
2022-11-13T16:54:40.162Z,99484.41
2022-11-13T17:00:01.197Z,99504.03
2022-11-13T17:05:23.821Z,99478.56
2022-11-13T17:10:44.957Z,99439.28
2022-11-13T17:16:06.114Z,99401.38
2022-11-13T17:21:30.195Z,99420.47
2022-11-13T17:26:51.341Z,99522.16
2022-11-13T17:32:12.162Z,99502.53
2022-11-13T17:37:33.211Z,99550.50
2022-11-13T17:42:54.241Z,99516.41
2022-11-13T17:48:19.171Z,99572.19
2022-11-13T17:53:45.415Z,99571.09
2022-11-13T17:59:06.199Z,99574.75
2022-11-13T18:04:27.393Z,99508.59
2022-11-13T18:09:48.185Z,99553.47
2022-11-13T18:15:11.860Z,99471.59
2022-11-13T18:20:35.214Z,99588.06
2022-11-13T18:25:56.286Z,99553.84
2022-11-13T18:31:18.697Z,99521.97
2022-11-13T18:36:41.816Z,99565.03
2022-11-13T18:42:02.704Z,99555.91
2022-11-13T18:47:26.598Z,99561.09
2022-11-13T18:52:47.660Z,99422.06
2022-11-13T18:58:14.545Z,99514.56
2022-11-13T19:03:35.411Z,99418.97
2022-11-13T19:09:05.131Z,99547.03
2022-11-13T19:14:26.256Z,99599.34
2022-11-13T19:19:47.343Z,99562.44
2022-11-13T19:25:08.778Z,99596.75
2022-11-13T19:30:29.893Z,99600.22
2022-11-13T19:35:52.003Z,99604.59
2022-11-13T19:41:12.877Z,99549.28
2022-11-13T19:46:34.348Z,99568.31
2022-11-13T19:51:55.375Z,99563.06
2022-11-13T19:57:16.281Z,99510.09
2022-11-13T20:02:36.967Z,99469.94
2022-11-13T20:07:58.648Z,99598.81
2022-11-13T20:13:19.528Z,99573.84
2022-11-13T20:18:40.724Z,99573.78
2022-11-13T20:24:01.863Z,99613.84
2022-11-13T20:29:22.677Z,99635.69
2022-11-13T20:34:43.464Z,99637.09
2022-11-13T20:40:06.658Z,99555.03
2022-11-13T20:45:27.451Z,99587.22
2022-11-13T20:50:48.021Z,99569.88
2022-11-13T20:56:09.669Z,99660.94
2022-11-13T21:01:30.719Z,99592.28
2022-11-13T21:06:52.719Z,99537.09
2022-11-13T21:12:13.494Z,99600.41
2022-11-13T21:17:34.056Z,99653.72
2022-11-13T21:22:54.629Z,99599.47
2022-11-13T21:28:19.521Z,99635.25
2022-11-13T21:33:44.363Z,99686.66
2022-11-13T21:39:05.030Z,99661.13
2022-11-13T21:44:25.790Z,99631.84
2022-11-13T21:49:46.698Z,99516.66
2022-11-13T21:55:08.961Z,99612.22
2022-11-13T22:00:29.726Z,99616.91
2022-11-13T22:05:50.400Z,99686.28
2022-11-13T22:11:12.187Z,99574.81
2022-11-13T22:16:36.726Z,99729.06
2022-11-13T22:21:57.542Z,99664.72
2022-11-13T22:27:18.628Z,99728.78
2022-11-13T22:32:39.217Z,99706.16
2022-11-13T22:38:02.455Z,99750.63
2022-11-13T22:43:23.316Z,99672.81
2022-11-13T22:48:45.339Z,99751.78
2022-11-13T22:54:07.990Z,99750.00
2022-11-13T22:59:28.709Z,99672.66
2022-11-13T23:04:49.378Z,99729.78
2022-11-13T23:10:10.612Z,99757.59
2022-11-13T23:15:31.619Z,99607.06
2022-11-13T23:20:52.243Z,99682.41
2022-11-13T23:26:14.578Z,99667.06
2022-11-13T23:31:35.444Z,99689.31
2022-11-13T23:36:56.084Z,99683.59
2022-11-13T23:42:32.956Z,99693.13
2022-11-13T23:47:57.265Z,99751.78
2022-11-13T23:53:17.839Z,99620.78
2022-11-13T23:58:38.328Z,99733.81
